sensor_id;sensor_type;location;lat;lon;timestamp;P1;durP1;ratioP1;P2;durP2;ratioP2
51616;SDS011;37697;52.588;13.394;2023-01-28T00:00:35;18.20;;;8.20;;
51616;SDS011;37697;52.588;13.394;2023-01-28T00:06:01;15.20;;;6.70;;
51616;SDS011;37697;52.588;13.394;2023-01-28T00:11:05;17.30;;;7.50;;
51616;SDS011;37697;52.588;13.394;2023-01-28T00:16:09;16.20;;;6.30;;
51616;SDS011;37697;52.588;13.394;2023-01-28T00:21:13;12.00;;;5.70;;
51616;SDS011;37697;52.588;13.394;2023-01-28T00:26:17;9.80;;;4.70;;
51616;SDS011;37697;52.588;13.394;2023-01-28T00:31:21;9.60;;;5.30;;
51616;SDS011;37697;52.588;13.394;2023-01-28T00:36:27;10.20;;;3.80;;
51616;SDS011;37697;52.588;13.394;2023-01-28T00:41:30;6.00;;;3.10;;
51616;SDS011;37697;52.588;13.394;2023-01-28T00:46:33;7.50;;;3.30;;
51616;SDS011;37697;52.588;13.394;2023-01-28T00:51:36;8.60;;;3.40;;
51616;SDS011;37697;52.588;13.394;2023-01-28T00:56:39;6.50;;;3.10;;
51616;SDS011;37697;52.588;13.394;2023-01-28T01:01:42;6.90;;;3.00;;
51616;SDS011;37697;52.588;13.394;2023-01-28T01:06:44;7.20;;;2.80;;
51616;SDS011;37697;52.588;13.394;2023-01-28T01:11:47;6.70;;;2.90;;
51616;SDS011;37697;52.588;13.394;2023-01-28T01:16:50;8.90;;;3.70;;
51616;SDS011;37697;52.588;13.394;2023-01-28T01:21:53;5.70;;;3.00;;
51616;SDS011;37697;52.588;13.394;2023-01-28T01:26:55;5.80;;;2.80;;
51616;SDS011;37697;52.588;13.394;2023-01-28T01:31:58;6.00;;;3.30;;
51616;SDS011;37697;52.588;13.394;2023-01-28T01:37:01;5.50;;;2.90;;
51616;SDS011;37697;52.588;13.394;2023-01-28T01:42:11;10.30;;;3.40;;
51616;SDS011;37697;52.588;13.394;2023-01-28T01:47:15;5.40;;;2.90;;
51616;SDS011;37697;52.588;13.394;2023-01-28T01:52:20;4.30;;;2.50;;
51616;SDS011;37697;52.588;13.394;2023-01-28T01:57:32;4.50;;;2.20;;
51616;SDS011;37697;52.588;13.394;2023-01-28T02:02:40;6.60;;;2.70;;
51616;SDS011;37697;52.588;13.394;2023-01-28T02:07:46;6.70;;;2.60;;
51616;SDS011;37697;52.588;13.394;2023-01-28T02:12:52;4.10;;;2.30;;
51616;SDS011;37697;52.588;13.394;2023-01-28T02:17:59;6.00;;;2.50;;
51616;SDS011;37697;52.588;13.394;2023-01-28T02:28:40;4.00;;;2.20;;
51616;SDS011;37697;52.588;13.394;2023-01-28T02:33:51;4.10;;;1.90;;
51616;SDS011;37697;52.588;13.394;2023-01-28T02:39:02;3.90;;;1.70;;
51616;SDS011;37697;52.588;13.394;2023-01-28T02:44:14;3.70;;;1.90;;
51616;SDS011;37697;52.588;13.394;2023-01-28T02:49:25;4.70;;;2.10;;
51616;SDS011;37697;52.588;13.394;2023-01-28T03:05:16;5.70;;;2.40;;
51616;SDS011;37697;52.588;13.394;2023-01-28T03:10:25;5.40;;;1.90;;
51616;SDS011;37697;52.588;13.394;2023-01-28T03:15:31;4.20;;;2.10;;
51616;SDS011;37697;52.588;13.394;2023-01-28T03:26:34;6.10;;;2.20;;
51616;SDS011;37697;52.588;13.394;2023-01-28T03:32:08;7.40;;;2.50;;
51616;SDS011;37697;52.588;13.394;2023-01-28T03:37:31;6.70;;;2.40;;
51616;SDS011;37697;52.588;13.394;2023-01-28T03:42:35;6.60;;;2.50;;
51616;SDS011;37697;52.588;13.394;2023-01-28T03:47:38;5.20;;;2.40;;
51616;SDS011;37697;52.588;13.394;2023-01-28T03:52:42;6.30;;;2.60;;
51616;SDS011;37697;52.588;13.394;2023-01-28T03:57:44;6.20;;;2.60;;
51616;SDS011;37697;52.588;13.394;2023-01-28T04:02:47;5.60;;;2.10;;
51616;SDS011;37697;52.588;13.394;2023-01-28T04:07:53;5.00;;;2.40;;
51616;SDS011;37697;52.588;13.394;2023-01-28T04:12:56;4.30;;;2.00;;
51616;SDS011;37697;52.588;13.394;2023-01-28T04:17:58;4.60;;;2.20;;
51616;SDS011;37697;52.588;13.394;2023-01-28T04:23:03;5.80;;;2.00;;
51616;SDS011;37697;52.588;13.394;2023-01-28T04:28:06;4.90;;;1.90;;
51616;SDS011;37697;52.588;13.394;2023-01-28T04:33:09;4.90;;;2.50;;
51616;SDS011;37697;52.588;13.394;2023-01-28T04:38:12;5.50;;;2.30;;
51616;SDS011;37697;52.588;13.394;2023-01-28T04:43:15;6.10;;;2.10;;
51616;SDS011;37697;52.588;13.394;2023-01-28T04:48:18;4.80;;;2.20;;
51616;SDS011;37697;52.588;13.394;2023-01-28T04:53:21;5.10;;;2.00;;
51616;SDS011;37697;52.588;13.394;2023-01-28T04:58:24;5.10;;;2.30;;
51616;SDS011;37697;52.588;13.394;2023-01-28T05:03:27;4.40;;;2.40;;
51616;SDS011;37697;52.588;13.394;2023-01-28T05:08:30;4.30;;;2.00;;
51616;SDS011;37697;52.588;13.394;2023-01-28T05:13:33;4.90;;;2.30;;
51616;SDS011;37697;52.588;13.394;2023-01-28T05:18:35;4.90;;;2.40;;
51616;SDS011;37697;52.588;13.394;2023-01-28T05:23:38;3.50;;;1.90;;
51616;SDS011;37697;52.588;13.394;2023-01-28T05:28:41;6.90;;;2.40;;
51616;SDS011;37697;52.588;13.394;2023-01-28T05:33:44;7.00;;;2.60;;
51616;SDS011;37697;52.588;13.394;2023-01-28T05:38:47;5.40;;;2.90;;
51616;SDS011;37697;52.588;13.394;2023-01-28T05:43:49;5.20;;;2.50;;
51616;SDS011;37697;52.588;13.394;2023-01-28T05:48:52;6.50;;;3.10;;
51616;SDS011;37697;52.588;13.394;2023-01-28T05:53:55;7.40;;;2.70;;
51616;SDS011;37697;52.588;13.394;2023-01-28T05:58:58;6.20;;;3.30;;
51616;SDS011;37697;52.588;13.394;2023-01-28T06:04:00;7.10;;;3.90;;
51616;SDS011;37697;52.588;13.394;2023-01-28T06:09:03;7.10;;;4.20;;
51616;SDS011;37697;52.588;13.394;2023-01-28T06:14:05;8.40;;;4.70;;
51616;SDS011;37697;52.588;13.394;2023-01-28T06:19:08;9.00;;;4.20;;
51616;SDS011;37697;52.588;13.394;2023-01-28T06:24:11;7.50;;;4.30;;
51616;SDS011;37697;52.588;13.394;2023-01-28T06:29:14;7.80;;;4.20;;
51616;SDS011;37697;52.588;13.394;2023-01-28T06:34:17;9.90;;;4.90;;
51616;SDS011;37697;52.588;13.394;2023-01-28T06:39:21;9.40;;;4.90;;
51616;SDS011;37697;52.588;13.394;2023-01-28T06:44:24;8.10;;;4.30;;
51616;SDS011;37697;52.588;13.394;2023-01-28T06:49:27;8.30;;;5.10;;
51616;SDS011;37697;52.588;13.394;2023-01-28T06:54:30;10.80;;;5.00;;
51616;SDS011;37697;52.588;13.394;2023-01-28T06:59:32;10.20;;;5.20;;
51616;SDS011;37697;52.588;13.394;2023-01-28T07:04:35;7.20;;;4.10;;
51616;SDS011;37697;52.588;13.394;2023-01-28T07:09:38;8.50;;;3.60;;
51616;SDS011;37697;52.588;13.394;2023-01-28T07:14:41;7.70;;;3.30;;
51616;SDS011;37697;52.588;13.394;2023-01-28T07:19:44;8.20;;;3.30;;
51616;SDS011;37697;52.588;13.394;2023-01-28T07:24:47;7.30;;;3.30;;
51616;SDS011;37697;52.588;13.394;2023-01-28T07:29:49;7.00;;;4.00;;
51616;SDS011;37697;52.588;13.394;2023-01-28T07:34:52;5.40;;;2.80;;
51616;SDS011;37697;52.588;13.394;2023-01-28T07:39:55;7.50;;;3.40;;
51616;SDS011;37697;52.588;13.394;2023-01-28T07:44:58;6.00;;;3.10;;
51616;SDS011;37697;52.588;13.394;2023-01-28T07:50:00;4.60;;;2.60;;
51616;SDS011;37697;52.588;13.394;2023-01-28T07:55:03;4.70;;;2.80;;
51616;SDS011;37697;52.588;13.394;2023-01-28T08:00:07;5.40;;;2.90;;
51616;SDS011;37697;52.588;13.394;2023-01-28T08:05:10;6.40;;;2.30;;
51616;SDS011;37697;52.588;13.394;2023-01-28T08:10:14;4.20;;;2.30;;
51616;SDS011;37697;52.588;13.394;2023-01-28T08:15:19;5.10;;;2.40;;
51616;SDS011;37697;52.588;13.394;2023-01-28T08:20:22;4.90;;;2.30;;
51616;SDS011;37697;52.588;13.394;2023-01-28T08:25:26;4.70;;;2.40;;
51616;SDS011;37697;52.588;13.394;2023-01-28T08:30:29;5.10;;;1.90;;
51616;SDS011;37697;52.588;13.394;2023-01-28T08:35:33;5.60;;;2.50;;
51616;SDS011;37697;52.588;13.394;2023-01-28T08:40:37;5.90;;;2.00;;
51616;SDS011;37697;52.588;13.394;2023-01-28T08:45:39;5.80;;;2.50;;
51616;SDS011;37697;52.588;13.394;2023-01-28T08:50:43;4.50;;;2.10;;
51616;SDS011;37697;52.588;13.394;2023-01-28T08:55:47;3.30;;;1.80;;
51616;SDS011;37697;52.588;13.394;2023-01-28T09:00:49;3.90;;;2.30;;
51616;SDS011;37697;52.588;13.394;2023-01-28T09:05:52;5.70;;;2.60;;
51616;SDS011;37697;52.588;13.394;2023-01-28T09:10:56;5.00;;;2.40;;
51616;SDS011;37697;52.588;13.394;2023-01-28T09:15:59;6.90;;;3.10;;
51616;SDS011;37697;52.588;13.394;2023-01-28T09:21:03;5.30;;;2.10;;
51616;SDS011;37697;52.588;13.394;2023-01-28T09:26:07;5.20;;;1.80;;
51616;SDS011;37697;52.588;13.394;2023-01-28T09:31:10;4.10;;;2.10;;
51616;SDS011;37697;52.588;13.394;2023-01-28T09:36:14;7.00;;;2.80;;
51616;SDS011;37697;52.588;13.394;2023-01-28T09:41:24;5.10;;;2.40;;
51616;SDS011;37697;52.588;13.394;2023-01-28T09:51:39;1.90;;;1.00;;
51616;SDS011;37697;52.588;13.394;2023-01-28T09:56:44;2.40;;;1.10;;
51616;SDS011;37697;52.588;13.394;2023-01-28T10:01:53;2.40;;;1.00;;
51616;SDS011;37697;52.588;13.394;2023-01-28T10:07:08;2.90;;;1.20;;
51616;SDS011;37697;52.588;13.394;2023-01-28T10:12:38;4.20;;;1.40;;
51616;SDS011;37697;52.588;13.394;2023-01-28T10:17:52;2.30;;;1.40;;
51616;SDS011;37697;52.588;13.394;2023-01-28T10:23:19;2.40;;;1.10;;
51616;SDS011;37697;52.588;13.394;2023-01-28T10:28:28;2.70;;;1.20;;
51616;SDS011;37697;52.588;13.394;2023-01-28T10:33:35;3.60;;;1.50;;
51616;SDS011;37697;52.588;13.394;2023-01-28T10:38:39;3.10;;;0.90;;
51616;SDS011;37697;52.588;13.394;2023-01-28T10:43:42;4.00;;;1.30;;
51616;SDS011;37697;52.588;13.394;2023-01-28T10:48:46;3.50;;;1.20;;
51616;SDS011;37697;52.588;13.394;2023-01-28T10:54:45;3.10;;;1.40;;
51616;SDS011;37697;52.588;13.394;2023-01-28T10:59:39;4.00;;;0.90;;
51616;SDS011;37697;52.588;13.394;2023-01-28T11:04:43;4.40;;;1.40;;
51616;SDS011;37697;52.588;13.394;2023-01-28T11:09:47;4.40;;;1.30;;
51616;SDS011;37697;52.588;13.394;2023-01-28T11:14:54;3.80;;;1.10;;
51616;SDS011;37697;52.588;13.394;2023-01-28T11:20:00;3.10;;;1.40;;
51616;SDS011;37697;52.588;13.394;2023-01-28T11:25:15;1.70;;;0.90;;
51616;SDS011;37697;52.588;13.394;2023-01-28T11:30:22;2.30;;;0.90;;
51616;SDS011;37697;52.588;13.394;2023-01-28T11:35:28;2.40;;;0.80;;
51616;SDS011;37697;52.588;13.394;2023-01-28T11:40:32;2.50;;;1.00;;
51616;SDS011;37697;52.588;13.394;2023-01-28T11:45:38;1.30;;;0.70;;
51616;SDS011;37697;52.588;13.394;2023-01-28T11:50:59;3.10;;;1.30;;
51616;SDS011;37697;52.588;13.394;2023-01-28T12:01:23;3.00;;;1.10;;
51616;SDS011;37697;52.588;13.394;2023-01-28T12:07:06;3.30;;;1.30;;
51616;SDS011;37697;52.588;13.394;2023-01-28T12:18:03;4.30;;;1.20;;
51616;SDS011;37697;52.588;13.394;2023-01-28T12:28:51;2.60;;;1.20;;
51616;SDS011;37697;52.588;13.394;2023-01-28T12:39:52;2.70;;;1.50;;
51616;SDS011;37697;52.588;13.394;2023-01-28T12:45:10;3.40;;;1.50;;
51616;SDS011;37697;52.588;13.394;2023-01-28T12:50:26;2.30;;;1.10;;
51616;SDS011;37697;52.588;13.394;2023-01-28T12:55:40;3.70;;;0.90;;
51616;SDS011;37697;52.588;13.394;2023-01-28T13:00:50;2.30;;;0.90;;
51616;SDS011;37697;52.588;13.394;2023-01-28T13:06:03;4.00;;;1.20;;
51616;SDS011;37697;52.588;13.394;2023-01-28T13:11:13;1.50;;;1.00;;
51616;SDS011;37697;52.588;13.394;2023-01-28T13:16:18;1.80;;;0.90;;
51616;SDS011;37697;52.588;13.394;2023-01-28T13:21:37;1.00;;;0.50;;
51616;SDS011;37697;52.588;13.394;2023-01-28T13:26:51;1.60;;;0.70;;
51616;SDS011;37697;52.588;13.394;2023-01-28T13:32:01;1.20;;;0.70;;
51616;SDS011;37697;52.588;13.394;2023-01-28T13:42:32;2.40;;;0.80;;
51616;SDS011;37697;52.588;13.394;2023-01-28T13:47:35;1.20;;;0.70;;
51616;SDS011;37697;52.588;13.394;2023-01-28T13:52:50;1.50;;;0.70;;
51616;SDS011;37697;52.588;13.394;2023-01-28T14:03:19;2.80;;;0.90;;
51616;SDS011;37697;52.588;13.394;2023-01-28T14:14:33;4.00;;;1.00;;
51616;SDS011;37697;52.588;13.394;2023-01-28T14:19:45;2.50;;;1.00;;
51616;SDS011;37697;52.588;13.394;2023-01-28T14:24:50;1.90;;;0.80;;
51616;SDS011;37697;52.588;13.394;2023-01-28T14:35:36;1.90;;;0.50;;
51616;SDS011;37697;52.588;13.394;2023-01-28T14:40:40;2.50;;;0.80;;
51616;SDS011;37697;52.588;13.394;2023-01-28T14:51:09;1.80;;;0.70;;
51616;SDS011;37697;52.588;13.394;2023-01-28T15:01:44;1.80;;;0.70;;
51616;SDS011;37697;52.588;13.394;2023-01-28T15:06:48;3.30;;;1.00;;
51616;SDS011;37697;52.588;13.394;2023-01-28T15:11:52;1.80;;;0.80;;
51616;SDS011;37697;52.588;13.394;2023-01-28T15:16:58;1.40;;;0.70;;
51616;SDS011;37697;52.588;13.394;2023-01-28T15:22:03;1.80;;;0.70;;
51616;SDS011;37697;52.588;13.394;2023-01-28T15:27:17;2.00;;;1.00;;
51616;SDS011;37697;52.588;13.394;2023-01-28T15:32:29;3.80;;;1.50;;
51616;SDS011;37697;52.588;13.394;2023-01-28T15:37:32;3.40;;;1.20;;
51616;SDS011;37697;52.588;13.394;2023-01-28T15:42:35;2.60;;;0.90;;
51616;SDS011;37697;52.588;13.394;2023-01-28T15:47:39;2.20;;;0.90;;
51616;SDS011;37697;52.588;13.394;2023-01-28T15:52:42;1.90;;;1.00;;
51616;SDS011;37697;52.588;13.394;2023-01-28T15:57:47;2.00;;;1.10;;
51616;SDS011;37697;52.588;13.394;2023-01-28T16:02:51;2.50;;;1.10;;
51616;SDS011;37697;52.588;13.394;2023-01-28T16:07:56;2.20;;;1.20;;
51616;SDS011;37697;52.588;13.394;2023-01-28T16:13:03;4.50;;;1.80;;
51616;SDS011;37697;52.588;13.394;2023-01-28T16:18:23;2.70;;;1.60;;
51616;SDS011;37697;52.588;13.394;2023-01-28T16:23:30;3.00;;;1.60;;
51616;SDS011;37697;52.588;13.394;2023-01-28T16:28:34;3.70;;;1.20;;
51616;SDS011;37697;52.588;13.394;2023-01-28T16:33:36;3.00;;;1.70;;
51616;SDS011;37697;52.588;13.394;2023-01-28T16:38:39;3.30;;;1.30;;
51616;SDS011;37697;52.588;13.394;2023-01-28T16:43:42;3.10;;;1.50;;
51616;SDS011;37697;52.588;13.394;2023-01-28T16:48:45;2.40;;;1.20;;
51616;SDS011;37697;52.588;13.394;2023-01-28T16:53:47;4.80;;;2.10;;
51616;SDS011;37697;52.588;13.394;2023-01-28T16:58:51;4.90;;;2.30;;
51616;SDS011;37697;52.588;13.394;2023-01-28T17:03:55;5.30;;;1.70;;
51616;SDS011;37697;52.588;13.394;2023-01-28T17:08:58;2.60;;;1.40;;
51616;SDS011;37697;52.588;13.394;2023-01-28T17:14:01;2.10;;;1.10;;
51616;SDS011;37697;52.588;13.394;2023-01-28T17:19:04;2.90;;;1.40;;
51616;SDS011;37697;52.588;13.394;2023-01-28T17:24:07;2.10;;;1.20;;
51616;SDS011;37697;52.588;13.394;2023-01-28T17:29:10;4.00;;;1.30;;
51616;SDS011;37697;52.588;13.394;2023-01-28T17:34:13;3.10;;;1.80;;
51616;SDS011;37697;52.588;13.394;2023-01-28T17:39:16;6.50;;;2.30;;
51616;SDS011;37697;52.588;13.394;2023-01-28T17:44:18;3.30;;;1.30;;
51616;SDS011;37697;52.588;13.394;2023-01-28T17:49:21;4.30;;;1.90;;
51616;SDS011;37697;52.588;13.394;2023-01-28T17:54:24;3.70;;;1.50;;
51616;SDS011;37697;52.588;13.394;2023-01-28T17:59:27;2.90;;;1.30;;
51616;SDS011;37697;52.588;13.394;2023-01-28T18:04:29;4.50;;;1.70;;
51616;SDS011;37697;52.588;13.394;2023-01-28T18:09:32;4.40;;;1.80;;
51616;SDS011;37697;52.588;13.394;2023-01-28T18:14:35;4.40;;;1.60;;
51616;SDS011;37697;52.588;13.394;2023-01-28T18:19:39;5.20;;;1.90;;
51616;SDS011;37697;52.588;13.394;2023-01-28T18:24:41;4.90;;;1.90;;
51616;SDS011;37697;52.588;13.394;2023-01-28T18:29:44;3.90;;;1.50;;
51616;SDS011;37697;52.588;13.394;2023-01-28T18:34:46;3.40;;;1.70;;
51616;SDS011;37697;52.588;13.394;2023-01-28T18:39:49;5.20;;;1.40;;
51616;SDS011;37697;52.588;13.394;2023-01-28T18:44:51;2.90;;;1.30;;
51616;SDS011;37697;52.588;13.394;2023-01-28T18:49:54;5.60;;;1.70;;
51616;SDS011;37697;52.588;13.394;2023-01-28T18:54:56;4.00;;;1.80;;
51616;SDS011;37697;52.588;13.394;2023-01-28T18:59:59;6.50;;;2.40;;
51616;SDS011;37697;52.588;13.394;2023-01-28T19:05:03;4.80;;;2.20;;
51616;SDS011;37697;52.588;13.394;2023-01-28T19:10:06;6.20;;;2.80;;
51616;SDS011;37697;52.588;13.394;2023-01-28T19:15:09;5.50;;;2.80;;
51616;SDS011;37697;52.588;13.394;2023-01-28T19:20:12;4.70;;;2.10;;
51616;SDS011;37697;52.588;13.394;2023-01-28T19:25:15;5.90;;;2.80;;
51616;SDS011;37697;52.588;13.394;2023-01-28T19:30:19;4.60;;;2.10;;
51616;SDS011;37697;52.588;13.394;2023-01-28T19:35:21;4.90;;;2.50;;
51616;SDS011;37697;52.588;13.394;2023-01-28T19:40:25;5.10;;;2.40;;
51616;SDS011;37697;52.588;13.394;2023-01-28T19:45:28;4.10;;;1.90;;
51616;SDS011;37697;52.588;13.394;2023-01-28T19:50:30;4.70;;;2.10;;
51616;SDS011;37697;52.588;13.394;2023-01-28T19:55:36;7.60;;;2.40;;
51616;SDS011;37697;52.588;13.394;2023-01-28T20:00:39;4.30;;;2.10;;
51616;SDS011;37697;52.588;13.394;2023-01-28T20:05:42;3.80;;;2.20;;
51616;SDS011;37697;52.588;13.394;2023-01-28T20:10:45;4.70;;;2.40;;
51616;SDS011;37697;52.588;13.394;2023-01-28T20:15:47;4.30;;;2.40;;
51616;SDS011;37697;52.588;13.394;2023-01-28T20:20:51;4.50;;;2.30;;
51616;SDS011;37697;52.588;13.394;2023-01-28T20:25:55;4.90;;;2.00;;
51616;SDS011;37697;52.588;13.394;2023-01-28T20:31:03;4.80;;;2.30;;
51616;SDS011;37697;52.588;13.394;2023-01-28T20:36:08;4.10;;;2.30;;
51616;SDS011;37697;52.588;13.394;2023-01-28T20:41:14;5.60;;;3.00;;
51616;SDS011;37697;52.588;13.394;2023-01-28T20:46:26;3.60;;;1.80;;
51616;SDS011;37697;52.588;13.394;2023-01-28T20:51:31;6.90;;;2.70;;
51616;SDS011;37697;52.588;13.394;2023-01-28T20:56:37;7.30;;;2.90;;
51616;SDS011;37697;52.588;13.394;2023-01-28T21:01:40;5.70;;;2.60;;
51616;SDS011;37697;52.588;13.394;2023-01-28T21:06:43;6.00;;;2.80;;
51616;SDS011;37697;52.588;13.394;2023-01-28T21:11:46;6.00;;;2.70;;
51616;SDS011;37697;52.588;13.394;2023-01-28T21:16:49;4.00;;;2.20;;
51616;SDS011;37697;52.588;13.394;2023-01-28T21:21:54;5.80;;;3.10;;
51616;SDS011;37697;52.588;13.394;2023-01-28T21:26:57;6.40;;;3.20;;
51616;SDS011;37697;52.588;13.394;2023-01-28T21:31:59;6.30;;;3.30;;
51616;SDS011;37697;52.588;13.394;2023-01-28T21:37:02;4.80;;;2.70;;
51616;SDS011;37697;52.588;13.394;2023-01-28T21:42:04;7.60;;;3.30;;
51616;SDS011;37697;52.588;13.394;2023-01-28T21:47:07;4.70;;;3.20;;
51616;SDS011;37697;52.588;13.394;2023-01-28T21:52:10;5.20;;;3.00;;
51616;SDS011;37697;52.588;13.394;2023-01-28T21:57:13;9.70;;;5.00;;
51616;SDS011;37697;52.588;13.394;2023-01-28T22:02:16;6.70;;;3.60;;
51616;SDS011;37697;52.588;13.394;2023-01-28T22:14:14;5.50;;;2.90;;
51616;SDS011;37697;52.588;13.394;2023-01-28T22:19:17;5.90;;;3.00;;
51616;SDS011;37697;52.588;13.394;2023-01-28T22:24:20;5.90;;;2.90;;
51616;SDS011;37697;52.588;13.394;2023-01-28T22:29:25;7.70;;;3.80;;
51616;SDS011;37697;52.588;13.394;2023-01-28T22:34:28;5.60;;;3.20;;
51616;SDS011;37697;52.588;13.394;2023-01-28T22:39:31;4.60;;;2.80;;
51616;SDS011;37697;52.588;13.394;2023-01-28T22:44:33;5.20;;;2.60;;
51616;SDS011;37697;52.588;13.394;2023-01-28T22:49:36;6.30;;;3.20;;
51616;SDS011;37697;52.588;13.394;2023-01-28T22:54:38;7.10;;;4.30;;
51616;SDS011;37697;52.588;13.394;2023-01-28T22:59:41;6.10;;;3.30;;
51616;SDS011;37697;52.588;13.394;2023-01-28T23:04:59;7.10;;;3.90;;
51616;SDS011;37697;52.588;13.394;2023-01-28T23:10:02;8.60;;;4.00;;
51616;SDS011;37697;52.588;13.394;2023-01-28T23:15:07;9.30;;;4.70;;
51616;SDS011;37697;52.588;13.394;2023-01-28T23:20:30;9.50;;;3.80;;
51616;SDS011;37697;52.588;13.394;2023-01-28T23:25:52;5.40;;;3.70;;
51616;SDS011;37697;52.588;13.394;2023-01-28T23:30:54;6.40;;;3.90;;
51616;SDS011;37697;52.588;13.394;2023-01-28T23:35:58;6.40;;;4.10;;
51616;SDS011;37697;52.588;13.394;2023-01-28T23:41:00;9.80;;;5.60;;
51616;SDS011;37697;52.588;13.394;2023-01-28T23:46:03;7.70;;;4.90;;
51616;SDS011;37697;52.588;13.394;2023-01-28T23:51:06;7.40;;;5.40;;
51616;SDS011;37697;52.588;13.394;2023-01-28T23:56:10;8.60;;;5.60;;
